createdAt,value
2019-03-13T00:00:53.542Z,100089.35
2019-03-13T00:03:20.687Z,100076.78
2019-03-13T00:05:47.766Z,100080.25
2019-03-13T00:08:14.844Z,100076.34
2019-03-13T00:10:41.911Z,100066.80
2019-03-13T00:13:08.968Z,100065.94
2019-03-13T00:15:36.031Z,100062.05
2019-03-13T00:18:03.209Z,100056.42
2019-03-13T00:20:30.287Z,100052.50
2019-03-13T00:22:57.349Z,100047.73
2019-03-13T00:25:24.506Z,100045.14
2019-03-13T00:27:51.571Z,100032.97
2019-03-13T00:30:18.732Z,100032.53
2019-03-13T00:32:45.790Z,100033.85
2019-03-13T00:35:12.957Z,100026.47
2019-03-13T00:37:40.012Z,100019.52
2019-03-13T00:40:07.111Z,100013.87
2019-03-13T00:42:34.172Z,100004.75
2019-03-13T00:45:01.232Z,100007.77
2019-03-13T00:47:28.311Z,100000.84
2019-03-13T00:49:55.363Z,99990.85
2019-03-13T00:52:22.451Z,99990.84
2019-03-13T00:54:49.517Z,99984.31
2019-03-13T00:57:16.567Z,99984.33
2019-03-13T00:59:43.615Z,99979.53
2019-03-13T01:02:23.006Z,99976.50
2019-03-13T01:04:58.528Z,99963.89
2019-03-13T01:07:25.588Z,99963.01
2019-03-13T01:09:52.641Z,99957.80
2019-03-13T01:12:19.712Z,99954.34
2019-03-13T01:14:46.783Z,99942.59
2019-03-13T01:17:13.851Z,99938.23
2019-03-13T01:19:40.904Z,99929.55
2019-03-13T01:22:07.951Z,99923.47
2019-03-13T01:24:34.999Z,99926.94
2019-03-13T01:27:02.066Z,99918.25
2019-03-13T01:29:29.122Z,99914.31
2019-03-13T01:32:06.899Z,99914.30
2019-03-13T01:34:37.059Z,99905.59
2019-03-13T01:37:04.121Z,99895.61
2019-03-13T01:39:31.174Z,99895.59
2019-03-13T01:41:58.253Z,99886.00
2019-03-13T01:44:25.311Z,99882.52
2019-03-13T01:46:52.363Z,99878.56
2019-03-13T01:49:19.630Z,99871.15
2019-03-13T01:51:46.724Z,99872.45
2019-03-13T01:54:13.775Z,99867.66
2019-03-13T01:56:40.828Z,99860.72
2019-03-13T01:59:07.919Z,99866.38
2019-03-13T02:01:34.979Z,99857.64
2019-03-13T02:04:02.028Z,99849.36
2019-03-13T02:06:29.075Z,99838.91
2019-03-13T02:08:56.123Z,99842.80
2019-03-13T02:11:23.194Z,99839.77
2019-03-13T02:13:50.247Z,99842.38
2019-03-13T02:16:17.302Z,99825.87
2019-03-13T02:18:44.367Z,99828.02
2019-03-13T02:21:11.475Z,99814.98
2019-03-13T02:23:38.530Z,99814.98
2019-03-13T02:26:05.592Z,99808.86
2019-03-13T02:28:32.648Z,99807.11
2019-03-13T02:30:59.702Z,99803.64
2019-03-13T02:33:26.801Z,99802.78
2019-03-13T02:35:53.834Z,99798.45
2019-03-13T02:38:20.939Z,99788.89
2019-03-13T02:40:47.970Z,99778.40
2019-03-13T02:43:15.077Z,99781.48
2019-03-13T02:45:42.138Z,99778.43
2019-03-13T02:48:09.200Z,99776.29
2019-03-13T02:50:36.258Z,99770.19
2019-03-13T02:53:03.335Z,99771.05
2019-03-13T02:55:30.394Z,99757.59
2019-03-13T02:57:58.503Z,99757.55
2019-03-13T03:00:38.645Z,99757.52
2019-03-13T03:03:07.503Z,99748.36
2019-03-13T03:05:34.572Z,99743.56
2019-03-13T03:08:01.736Z,99734.84
2019-03-13T03:10:28.848Z,99723.61
2019-03-13T03:12:57.743Z,99722.70
2019-03-13T03:15:24.870Z,99722.23
2019-03-13T03:17:51.923Z,99711.34
2019-03-13T03:20:19.217Z,99714.78
2019-03-13T03:22:46.511Z,99709.54
2019-03-13T03:25:14.036Z,99700.86
2019-03-13T03:27:41.096Z,99690.80
2019-03-13T03:30:11.388Z,99690.33
2019-03-13T03:32:38.441Z,99687.75
2019-03-13T03:35:05.517Z,99682.50
2019-03-13T03:37:32.562Z,99671.20
2019-03-13T03:39:59.621Z,99663.83
2019-03-13T03:42:26.681Z,99655.52
2019-03-13T03:44:53.750Z,99660.30
2019-03-13T03:47:20.800Z,99655.94
2019-03-13T03:49:47.869Z,99631.08
2019-03-13T03:52:14.979Z,99637.12
2019-03-13T03:54:42.048Z,99640.59
2019-03-13T03:57:09.150Z,99640.10
2019-03-13T03:59:36.408Z,99632.72
2019-03-13T04:02:03.473Z,99624.41
2019-03-13T04:04:30.658Z,99620.01
2019-03-13T04:06:57.712Z,99619.97
2019-03-13T04:09:24.791Z,99622.17
2019-03-13T04:11:51.863Z,99607.78
2019-03-13T04:14:18.944Z,99614.75
2019-03-13T04:16:46.015Z,99613.00
2019-03-13T04:19:13.064Z,99605.13
2019-03-13T04:21:40.129Z,99601.17
2019-03-13T04:24:07.201Z,99588.98
2019-03-13T04:26:34.273Z,99584.13
2019-03-13T04:29:01.337Z,99577.16
2019-03-13T04:31:28.404Z,99575.89
2019-03-13T04:33:55.465Z,99575.84
2019-03-13T04:36:22.529Z,99567.48
2019-03-13T04:38:49.601Z,99562.72
2019-03-13T04:41:16.661Z,99567.48
2019-03-13T04:43:44.820Z,99567.44
2019-03-13T04:46:11.879Z,99553.05
2019-03-13T04:48:38.968Z,99548.17
2019-03-13T04:51:06.022Z,99548.58
2019-03-13T04:53:33.077Z,99549.84
2019-03-13T04:56:00.150Z,99551.69
2019-03-13T04:58:27.210Z,99540.34
2019-03-13T05:00:54.269Z,99550.33
2019-03-13T05:03:21.336Z,99538.55
2019-03-13T05:05:54.190Z,99540.70
2019-03-13T05:09:18.132Z,99532.42
2019-03-13T05:11:45.216Z,99521.92
2019-03-13T05:14:12.283Z,99522.73
2019-03-13T05:16:39.344Z,99519.63
2019-03-13T05:19:06.408Z,99520.52
2019-03-13T05:21:33.467Z,99509.63
2019-03-13T05:24:00.525Z,99511.38
2019-03-13T05:26:27.576Z,99512.30
2019-03-13T05:28:54.648Z,99496.58
2019-03-13T05:31:21.712Z,99491.84
2019-03-13T05:33:48.776Z,99493.51
2019-03-13T05:36:16.977Z,99489.54
2019-03-13T05:38:44.304Z,99487.78
2019-03-13T05:41:11.368Z,99491.70
2019-03-13T05:43:38.443Z,99481.30
2019-03-13T05:46:05.521Z,99481.27
2019-03-13T05:48:32.585Z,99467.34
2019-03-13T05:50:59.641Z,99469.59
2019-03-13T05:53:26.712Z,99471.67
2019-03-13T05:55:53.811Z,99465.68
2019-03-13T05:58:20.907Z,99457.36
2019-03-13T06:00:47.964Z,99453.89
2019-03-13T06:03:15.030Z,99452.08
2019-03-13T06:05:42.089Z,99447.71
2019-03-13T06:08:09.181Z,99445.09
2019-03-13T06:10:36.252Z,99449.00
2019-03-13T06:13:03.313Z,99446.81
2019-03-13T06:15:32.831Z,99439.38
2019-03-13T06:17:59.912Z,99438.98
2019-03-13T06:20:26.992Z,99432.44
2019-03-13T06:22:54.022Z,99431.08
2019-03-13T06:25:21.064Z,99427.61
2019-03-13T06:27:48.145Z,99425.01
2019-03-13T06:30:15.207Z,99424.09
2019-03-13T06:32:42.281Z,99422.75
2019-03-13T06:35:09.550Z,99418.88
2019-03-13T06:37:36.608Z,99425.81
2019-03-13T06:40:04.644Z,99415.34
2019-03-13T06:42:31.698Z,99410.18
2019-03-13T06:44:58.825Z,99414.91
2019-03-13T06:47:25.919Z,99402.81
2019-03-13T06:49:53.000Z,99407.96
2019-03-13T06:52:20.066Z,99405.77
2019-03-13T06:54:47.158Z,99402.75
2019-03-13T06:57:14.218Z,99402.29
2019-03-13T06:59:59.662Z,99399.73
2019-03-13T07:02:39.097Z,99394.56
2019-03-13T07:05:16.443Z,99395.31
2019-03-13T07:07:59.421Z,99389.19
2019-03-13T07:10:49.251Z,99387.47
2019-03-13T07:13:37.015Z,99384.80
2019-03-13T07:16:11.760Z,99388.67
2019-03-13T07:18:44.233Z,99383.06
2019-03-13T07:21:32.283Z,99375.66
2019-03-13T07:24:21.849Z,99381.39
2019-03-13T07:27:00.010Z,99369.14
2019-03-13T07:29:36.533Z,99365.22
2019-03-13T07:32:08.918Z,99368.27
2019-03-13T07:34:45.482Z,99353.02
2019-03-13T07:37:32.124Z,99360.00
2019-03-13T07:40:12.029Z,99350.28
2019-03-13T07:42:57.353Z,99355.11
2019-03-13T07:45:47.044Z,99343.75
2019-03-13T07:48:33.691Z,99350.27
2019-03-13T07:51:09.350Z,99338.59
2019-03-13T07:54:01.800Z,99337.66
2019-03-13T07:56:51.083Z,99336.77
2019-03-13T07:59:52.838Z,99328.02
2019-03-13T08:02:25.402Z,99337.95
2019-03-13T08:05:12.074Z,99335.45
2019-03-13T08:07:51.484Z,99327.29
2019-03-13T08:10:34.583Z,99319.45
2019-03-13T08:13:12.721Z,99312.45
2019-03-13T08:15:59.808Z,99313.77
2019-03-13T08:18:49.308Z,99314.73
2019-03-13T08:21:34.573Z,99312.91
2019-03-13T08:24:27.244Z,99305.13
2019-03-13T08:27:15.159Z,99305.52
2019-03-13T08:30:00.470Z,99302.86
2019-03-13T08:32:50.295Z,99288.05
2019-03-13T08:35:51.938Z,99290.98
2019-03-13T08:38:31.823Z,99289.23
2019-03-13T08:41:13.103Z,99281.97
2019-03-13T08:44:02.884Z,99278.09
2019-03-13T08:46:35.068Z,99269.81
2019-03-13T08:49:20.366Z,99266.68
2019-03-13T08:51:53.828Z,99260.50
2019-03-13T08:54:43.431Z,99260.55
2019-03-13T08:57:27.260Z,99252.83
2019-03-13T09:00:19.744Z,99255.73
2019-03-13T09:02:58.136Z,99254.41
2019-03-13T09:05:43.541Z,99239.66
2019-03-13T09:08:36.522Z,99242.15
2019-03-13T09:11:21.823Z,99241.34
2019-03-13T09:14:15.193Z,99239.54
2019-03-13T09:17:10.858Z,99233.80
2019-03-13T09:19:56.320Z,99232.47
2019-03-13T09:22:42.884Z,99227.52
2019-03-13T09:25:32.220Z,99230.98
2019-03-13T09:28:17.619Z,99221.89
2019-03-13T09:31:13.458Z,99220.92
2019-03-13T09:34:00.100Z,99215.63
2019-03-13T09:36:49.493Z,99215.17
2019-03-13T09:39:36.957Z,99209.53
2019-03-13T09:42:29.325Z,99205.55
2019-03-13T09:45:21.757Z,99198.57
2019-03-13T09:48:07.332Z,99202.47
2019-03-13T09:50:39.232Z,99201.23
2019-03-13T09:53:25.879Z,99195.16
2019-03-13T09:56:10.053Z,99189.88
2019-03-13T09:58:48.610Z,99184.45
2019-03-13T10:01:38.980Z,99177.47
2019-03-13T10:04:22.784Z,99173.92
2019-03-13T10:07:03.234Z,99169.23
2019-03-13T10:09:49.884Z,99169.98
2019-03-13T10:12:39.569Z,99163.98
2019-03-13T10:15:23.203Z,99156.46
2019-03-13T10:17:57.212Z,99155.09
2019-03-13T10:20:35.633Z,99157.72
2019-03-13T10:23:18.542Z,99152.86
2019-03-13T10:25:53.580Z,99147.58
2019-03-13T10:28:58.459Z,99151.03
2019-03-13T10:31:46.485Z,99145.34
2019-03-13T10:34:29.021Z,99151.95
2019-03-13T10:37:18.542Z,99141.02
2019-03-13T10:39:56.859Z,99144.44
2019-03-13T10:42:40.236Z,99142.33
2019-03-13T10:45:16.143Z,99140.49
2019-03-13T10:47:54.973Z,99132.20
2019-03-13T10:50:41.566Z,99133.50
2019-03-13T10:53:31.049Z,99128.67
2019-03-13T10:56:35.868Z,99125.66
2019-03-13T10:59:21.505Z,99130.56
2019-03-13T11:02:14.208Z,99122.65
2019-03-13T11:05:03.662Z,99112.59
2019-03-13T11:07:50.315Z,99123.90
2019-03-13T11:10:29.085Z,99117.95
2019-03-13T11:13:06.222Z,99122.59
2019-03-13T11:15:52.875Z,99113.36
2019-03-13T11:18:27.747Z,99111.20
2019-03-13T11:21:03.928Z,99118.20
2019-03-13T11:23:49.157Z,99111.27
2019-03-13T11:26:48.049Z,99108.52
2019-03-13T11:29:21.180Z,99111.13
2019-03-13T11:32:10.846Z,99111.34
2019-03-13T11:34:53.874Z,99113.18
2019-03-13T11:37:46.696Z,99107.44
2019-03-13T11:40:23.913Z,99102.27
2019-03-13T11:43:10.605Z,99106.72
2019-03-13T11:45:55.007Z,99107.84
2019-03-13T11:48:41.716Z,99100.38
2019-03-13T11:51:20.204Z,99096.00
2019-03-13T11:54:06.835Z,99102.91
2019-03-13T11:56:59.664Z,99106.35
2019-03-13T11:59:40.364Z,99092.05
2019-03-13T12:02:33.201Z,99103.05
2019-03-13T12:05:13.242Z,99099.52
2019-03-13T12:07:48.895Z,99092.50
2019-03-13T12:10:35.533Z,99105.58
2019-03-13T12:13:12.685Z,99098.75
2019-03-13T12:15:46.736Z,99098.29
2019-03-13T12:18:36.604Z,99093.22
2019-03-13T12:21:29.196Z,99094.00
2019-03-13T12:24:18.873Z,99099.28
2019-03-13T12:27:04.204Z,99098.80
2019-03-13T12:30:02.951Z,99087.89
2019-03-13T12:32:58.686Z,99091.75
2019-03-13T12:35:51.355Z,99091.75
2019-03-13T12:38:42.154Z,99085.28
2019-03-13T12:41:27.601Z,99084.98
2019-03-13T12:44:08.839Z,99089.55
2019-03-13T12:47:04.606Z,99081.22
2019-03-13T12:49:45.006Z,99087.22
2019-03-13T12:52:43.763Z,99078.82
2019-03-13T12:55:28.390Z,99074.70
2019-03-13T12:58:12.224Z,99072.83
2019-03-13T13:00:53.182Z,99081.53
2019-03-13T13:03:48.933Z,99076.84
2019-03-13T13:06:28.124Z,99077.66
2019-03-13T13:09:20.573Z,99082.53
2019-03-13T13:12:07.248Z,99090.15
2019-03-13T13:14:56.932Z,99090.03
2019-03-13T13:17:34.036Z,99089.52
2019-03-13T13:20:01.091Z,99085.27
2019-03-13T13:22:28.155Z,99086.42
2019-03-13T13:24:55.228Z,99090.41
2019-03-13T13:27:22.280Z,99077.64
2019-03-13T13:29:49.392Z,99082.41
2019-03-13T13:32:16.483Z,99079.71
2019-03-13T13:34:43.555Z,99077.77
2019-03-13T13:37:10.628Z,99075.92
2019-03-13T13:39:37.711Z,99080.06
2019-03-13T13:42:04.871Z,99081.31
2019-03-13T13:44:32.280Z,99089.29
2019-03-13T13:46:59.353Z,99093.58
2019-03-13T13:49:26.452Z,99084.23
2019-03-13T13:51:53.520Z,99089.23
2019-03-13T13:54:20.620Z,99087.28
2019-03-13T13:56:47.692Z,99089.25
2019-03-13T13:59:14.768Z,99096.47
2019-03-13T14:01:41.839Z,99087.50
2019-03-13T14:04:08.916Z,99093.01
2019-03-13T14:06:35.968Z,99090.62
2019-03-13T14:09:04.413Z,99093.91
2019-03-13T14:11:31.479Z,99098.48
2019-03-13T14:13:58.554Z,99097.24
2019-03-13T14:16:25.681Z,99097.37
2019-03-13T14:18:52.742Z,99095.41
2019-03-13T14:21:19.840Z,99092.00
2019-03-13T14:23:50.122Z,99085.93
2019-03-13T14:26:17.281Z,99090.05
2019-03-13T14:28:44.351Z,99089.95
2019-03-13T14:31:11.416Z,99091.94
2019-03-13T14:33:40.196Z,99087.45
2019-03-13T14:36:07.278Z,99093.67
2019-03-13T14:38:34.363Z,99099.77
2019-03-13T14:41:01.426Z,99101.02
2019-03-13T14:43:28.492Z,99105.70
2019-03-13T14:45:55.567Z,99107.76
2019-03-13T14:48:22.764Z,99101.63
2019-03-13T14:50:49.857Z,99103.82
2019-03-13T14:53:16.919Z,99102.27
2019-03-13T14:55:43.984Z,99104.43
2019-03-13T14:58:11.123Z,99115.77
2019-03-13T15:00:38.208Z,99109.61
2019-03-13T15:03:05.445Z,99113.08
2019-03-13T15:05:32.617Z,99113.19
2019-03-13T15:07:59.709Z,99114.85
2019-03-13T15:10:26.768Z,99118.75
2019-03-13T15:12:53.855Z,99113.50
2019-03-13T15:15:20.974Z,99119.83
2019-03-13T15:17:48.108Z,99116.63
2019-03-13T15:20:15.268Z,99117.80
2019-03-13T15:22:42.340Z,99118.66
2019-03-13T15:25:09.942Z,99121.34
2019-03-13T15:27:37.020Z,99120.14
2019-03-13T15:30:05.829Z,99112.27
2019-03-13T15:32:32.904Z,99113.27
2019-03-13T15:34:59.967Z,99106.63
2019-03-13T15:37:27.028Z,99109.78
2019-03-13T15:39:54.111Z,99104.64
2019-03-13T15:42:21.282Z,99105.66
2019-03-13T15:44:48.338Z,99102.87
2019-03-13T15:47:15.435Z,99105.45
2019-03-13T15:49:42.505Z,99104.14
2019-03-13T15:52:09.575Z,99107.30
2019-03-13T15:54:36.684Z,99108.28
2019-03-13T15:57:03.747Z,99115.73
2019-03-13T15:59:30.831Z,99108.75
2019-03-13T16:01:57.906Z,99111.30
2019-03-13T16:04:24.968Z,99117.04
2019-03-13T16:06:52.057Z,99118.88
2019-03-13T16:09:19.119Z,99117.27
2019-03-13T16:11:46.223Z,99117.27
2019-03-13T16:14:13.304Z,99119.25
2019-03-13T16:16:40.365Z,99111.70
2019-03-13T16:19:07.422Z,99119.54
2019-03-13T16:21:34.512Z,99120.29
2019-03-13T16:24:01.599Z,99116.81
2019-03-13T16:26:28.650Z,99118.48
2019-03-13T16:28:55.708Z,99121.50
2019-03-13T16:31:22.795Z,99123.20
2019-03-13T16:33:49.880Z,99125.33
2019-03-13T16:36:16.966Z,99127.20
2019-03-13T16:38:44.027Z,99126.28
2019-03-13T16:41:11.090Z,99129.30
2019-03-13T16:43:38.258Z,99128.52
2019-03-13T16:46:05.328Z,99129.47
2019-03-13T16:48:32.392Z,99131.27
2019-03-13T16:50:59.489Z,99137.05
2019-03-13T16:53:26.547Z,99129.64
2019-03-13T16:55:53.779Z,99144.91
2019-03-13T16:58:20.843Z,99138.95
2019-03-13T17:00:50.429Z,99131.15
2019-03-13T17:03:16.918Z,99134.03
2019-03-13T17:05:43.974Z,99133.31
2019-03-13T17:08:11.051Z,99135.64
2019-03-13T17:10:38.135Z,99131.80
2019-03-13T17:13:05.802Z,99139.18
2019-03-13T17:15:33.175Z,99143.14
2019-03-13T17:18:00.246Z,99137.97
2019-03-13T17:20:27.376Z,99135.34
2019-03-13T17:22:54.427Z,99137.14
2019-03-13T17:25:21.498Z,99136.39
2019-03-13T17:27:48.689Z,99136.09
2019-03-13T17:30:20.772Z,99141.27
2019-03-13T17:32:48.192Z,99142.58
2019-03-13T17:35:15.384Z,99143.49
2019-03-13T17:37:42.440Z,99143.95
2019-03-13T17:40:11.855Z,99141.36
2019-03-13T17:42:38.902Z,99144.90
2019-03-13T17:45:07.576Z,99142.38
2019-03-13T17:47:34.660Z,99149.45
2019-03-13T17:50:01.731Z,99147.70
2019-03-13T17:52:28.867Z,99146.00
2019-03-13T17:54:55.959Z,99148.78
2019-03-13T17:57:23.021Z,99146.95
2019-03-13T17:59:50.109Z,99148.63
2019-03-13T18:02:17.172Z,99149.17
2019-03-13T18:04:44.237Z,99151.43
2019-03-13T18:07:11.303Z,99151.86
2019-03-13T18:09:38.427Z,99144.48
2019-03-13T18:12:05.485Z,99144.85
2019-03-13T18:14:32.548Z,99147.02
2019-03-13T18:16:59.634Z,99142.69
2019-03-13T18:19:26.738Z,99142.27
2019-03-13T18:21:54.152Z,99138.33
2019-03-13T18:24:21.262Z,99131.87
2019-03-13T18:26:48.380Z,99147.11
2019-03-13T18:29:15.514Z,99149.33
2019-03-13T18:31:42.585Z,99148.42
2019-03-13T18:34:09.661Z,99138.85
2019-03-13T18:36:36.806Z,99143.17
2019-03-13T18:39:04.329Z,99137.55
2019-03-13T18:41:31.480Z,99141.80
2019-03-13T18:43:58.549Z,99141.41
2019-03-13T18:46:25.611Z,99141.41
2019-03-13T18:48:52.699Z,99133.19
2019-03-13T18:51:19.912Z,99138.03
2019-03-13T18:53:46.982Z,99136.81
2019-03-13T18:56:14.071Z,99135.47
2019-03-13T18:58:43.863Z,99145.52
2019-03-13T19:01:23.883Z,99147.27
2019-03-13T19:03:50.983Z,99145.06
2019-03-13T19:06:18.098Z,99138.13
2019-03-13T19:08:45.195Z,99139.50
2019-03-13T19:11:12.311Z,99141.66
2019-03-13T19:13:39.376Z,99133.80
2019-03-13T19:16:06.458Z,99130.72
2019-03-13T19:18:33.518Z,99131.58
2019-03-13T19:21:00.691Z,99126.03
2019-03-13T19:23:27.754Z,99133.07
2019-03-13T19:25:54.944Z,99125.19
2019-03-13T19:28:22.032Z,99127.89
2019-03-13T19:30:49.174Z,99127.38
2019-03-13T19:33:16.192Z,99125.64
2019-03-13T19:35:43.286Z,99131.73
2019-03-13T19:38:10.396Z,99131.45
2019-03-13T19:40:37.487Z,99129.57
2019-03-13T19:43:04.549Z,99139.59
2019-03-13T19:45:36.715Z,99134.74
2019-03-13T19:48:03.997Z,99130.78
2019-03-13T19:50:31.070Z,99129.91
2019-03-13T19:52:58.151Z,99124.73
2019-03-13T19:55:25.225Z,99126.95
2019-03-13T19:57:52.304Z,99130.42
2019-03-13T20:00:20.681Z,99128.27
2019-03-13T20:02:59.330Z,99130.78
2019-03-13T20:05:16.752Z,99128.69
2019-03-13T20:07:44.037Z,99123.05
2019-03-13T20:10:16.619Z,99122.69
2019-03-13T20:12:43.703Z,99117.87
2019-03-13T20:15:12.864Z,99118.27
2019-03-13T20:17:41.745Z,99114.34
2019-03-13T20:20:10.049Z,99117.45
2019-03-13T20:22:37.111Z,99116.05
2019-03-13T20:25:04.649Z,99104.69
2019-03-13T20:27:31.719Z,99112.94
2019-03-13T20:29:58.903Z,99101.18
2019-03-13T20:32:26.005Z,99106.39
2019-03-13T20:34:53.347Z,99105.48
2019-03-13T20:37:20.532Z,99104.47
2019-03-13T20:39:47.599Z,99113.54
2019-03-13T20:42:14.653Z,99106.05
2019-03-13T20:44:41.807Z,99113.41
2019-03-13T20:47:08.942Z,99109.03
2019-03-13T20:49:36.106Z,99104.70
2019-03-13T20:52:03.179Z,99110.73
2019-03-13T20:54:30.313Z,99125.86
2019-03-13T20:56:57.482Z,99117.12
2019-03-13T20:59:24.553Z,99114.47
2019-03-13T21:01:51.684Z,99112.63
2019-03-13T21:04:18.758Z,99113.55
2019-03-13T21:06:45.831Z,99112.11
2019-03-13T21:09:13.006Z,99114.57
2019-03-13T21:11:44.482Z,99114.57
2019-03-13T21:14:11.545Z,99118.41
2019-03-13T21:16:38.635Z,99113.39
2019-03-13T21:19:05.720Z,99108.05
2019-03-13T21:21:35.571Z,99108.52
2019-03-13T21:24:02.762Z,99104.97
2019-03-13T21:26:29.815Z,99102.78
2019-03-13T21:28:56.893Z,99105.79
2019-03-13T21:31:23.968Z,99104.97
2019-03-13T21:33:51.047Z,99105.86
2019-03-13T21:36:18.218Z,99098.88
2019-03-13T21:38:51.342Z,99101.50
2019-03-13T21:41:18.548Z,99098.02
2019-03-13T21:43:45.609Z,99094.55
2019-03-13T21:46:12.680Z,99088.06
2019-03-13T21:48:39.785Z,99082.47
2019-03-13T21:51:09.310Z,99083.42
2019-03-13T21:53:36.375Z,99083.88
2019-03-13T21:56:03.457Z,99089.16
2019-03-13T21:58:30.523Z,99085.28
2019-03-13T22:00:57.595Z,99088.76
2019-03-13T22:03:29.817Z,99086.14
2019-03-13T22:05:53.647Z,99086.59
2019-03-13T22:08:20.688Z,99083.98
2019-03-13T22:10:47.750Z,99081.36
2019-03-13T22:13:14.811Z,99082.66
2019-03-13T22:15:41.872Z,99076.18
2019-03-13T22:18:08.943Z,99080.50
2019-03-13T22:20:36.008Z,99082.27
2019-03-13T22:23:03.092Z,99084.08
2019-03-13T22:25:30.168Z,99077.13
2019-03-13T22:27:57.259Z,99082.83
2019-03-13T22:30:32.651Z,99076.28
2019-03-13T22:32:59.706Z,99073.66
2019-03-13T22:35:26.802Z,99069.77
2019-03-13T22:37:53.869Z,99070.12
2019-03-13T22:40:21.065Z,99061.87
2019-03-13T22:42:48.136Z,99063.56
2019-03-13T22:45:15.493Z,99056.95
2019-03-13T22:47:43.393Z,99059.58
2019-03-13T22:50:13.164Z,99056.63
2019-03-13T22:52:40.222Z,99060.03
2019-03-13T22:55:07.402Z,99053.91
2019-03-13T22:57:34.488Z,99054.79
2019-03-13T23:00:01.548Z,99053.45
2019-03-13T23:02:28.732Z,99049.16
2019-03-13T23:04:56.213Z,99050.41
2019-03-13T23:07:23.272Z,99051.61
2019-03-13T23:09:50.358Z,99045.02
2019-03-13T23:12:17.421Z,99042.41
2019-03-13T23:14:44.523Z,99043.29
2019-03-13T23:17:11.583Z,99036.34
2019-03-13T23:19:38.644Z,99031.50
2019-03-13T23:22:05.731Z,99035.03
2019-03-13T23:24:32.835Z,99028.13
2019-03-13T23:26:59.913Z,99028.95
2019-03-13T23:29:26.979Z,99020.13
2019-03-13T23:31:54.042Z,99021.83
2019-03-13T23:34:21.099Z,99023.20
2019-03-13T23:36:48.195Z,99011.34
2019-03-13T23:39:15.293Z,99005.61
2019-03-13T23:41:42.397Z,99002.00
2019-03-13T23:44:09.457Z,98994.89
2019-03-13T23:46:36.530Z,98995.70
2019-03-13T23:49:03.630Z,98991.84
2019-03-13T23:51:30.685Z,98989.50
2019-03-13T23:53:57.740Z,98985.57
2019-03-13T23:56:27.628Z,98980.79
2019-03-13T23:58:54.709Z,98977.64
